createdAt,value
2023-01-11T00:04:52.068Z,7.22
2023-01-11T00:09:53.633Z,7.28
2023-01-11T00:14:55.061Z,6.68
2023-01-11T00:19:56.427Z,7.40
2023-01-11T00:24:58.936Z,6.97
2023-01-11T00:30:00.413Z,6.95
2023-01-11T00:35:03.339Z,6.82
2023-01-11T00:40:04.982Z,6.50
2023-01-11T00:45:25.234Z,6.65
2023-01-11T00:50:28.359Z,6.43
2023-01-11T00:55:31.902Z,6.03
2023-01-11T01:00:33.332Z,5.45
2023-01-11T01:05:37.341Z,4.60
2023-01-11T01:10:38.741Z,4.88
2023-01-11T01:15:40.211Z,4.13
2023-01-11T01:20:41.710Z,4.10
2023-01-11T01:25:43.119Z,4.20
2023-01-11T01:30:49.280Z,4.18
2023-01-11T01:35:50.725Z,4.07
2023-01-11T01:40:52.357Z,4.07
2023-01-11T01:45:56.090Z,3.20
2023-01-11T01:50:59.945Z,3.00
2023-01-11T01:56:02.338Z,3.03
2023-01-11T02:01:24.162Z,2.33
2023-01-11T02:06:25.827Z,2.22
2023-01-11T02:11:32.143Z,2.40
2023-01-11T02:16:33.861Z,2.38
2023-01-11T02:21:38.319Z,2.13
2023-01-11T02:26:59.170Z,2.22
2023-01-11T02:32:00.572Z,3.28
2023-01-11T02:37:01.932Z,2.78
2023-01-11T02:42:49.117Z,3.22
2023-01-11T02:47:50.573Z,2.70
2023-01-11T02:53:01.120Z,3.13
2023-01-11T02:58:03.195Z,3.65
2023-01-11T03:03:08.722Z,3.50
2023-01-11T03:08:33.118Z,3.55
2023-01-11T03:13:44.462Z,3.10
2023-01-11T03:19:08.154Z,3.92
2023-01-11T03:24:21.328Z,4.38
2023-01-11T03:29:22.674Z,3.75
2023-01-11T03:34:31.497Z,4.45
2023-01-11T03:39:47.312Z,4.07
2023-01-11T03:44:52.687Z,4.55
2023-01-11T03:50:05.342Z,4.40
2023-01-11T03:55:08.690Z,3.55
2023-01-11T04:00:10.455Z,3.83
2023-01-11T04:05:11.897Z,4.07
2023-01-11T04:10:13.371Z,3.58
2023-01-11T04:15:15.427Z,3.90
2023-01-11T04:20:16.894Z,3.88
2023-01-11T04:25:18.573Z,3.40
2023-01-11T04:30:20.010Z,3.60
2023-01-11T04:35:21.519Z,3.25
2023-01-11T04:40:24.433Z,4.38
2023-01-11T04:45:25.906Z,4.43
2023-01-11T04:50:27.806Z,3.42
2023-01-11T04:55:29.268Z,3.58
2023-01-11T05:00:30.659Z,3.28
2023-01-11T05:05:32.061Z,4.20
2023-01-11T05:10:33.493Z,3.83
2023-01-11T05:15:34.921Z,4.35
2023-01-11T05:20:36.344Z,4.18
2023-01-11T05:25:37.756Z,2.88
2023-01-11T05:30:39.159Z,3.17
2023-01-11T05:35:40.576Z,3.45
2023-01-11T05:40:42.013Z,3.97
2023-01-11T05:45:43.421Z,2.97
2023-01-11T05:50:44.865Z,3.80
2023-01-11T05:55:56.233Z,3.33
2023-01-11T06:00:57.670Z,3.72
2023-01-11T06:05:59.573Z,3.40
2023-01-11T06:11:01.294Z,3.40
2023-01-11T06:16:06.773Z,3.50
2023-01-11T06:21:08.533Z,2.83
2023-01-11T06:26:11.273Z,3.40
2023-01-11T06:31:17.142Z,2.60
2023-01-11T06:36:19.128Z,3.17
2023-01-11T06:41:20.539Z,3.20
2023-01-11T06:46:22.153Z,3.15
2023-01-11T06:51:23.567Z,3.22
2023-01-11T06:56:32.057Z,2.67
2023-01-11T07:01:33.479Z,3.13
2023-01-11T07:06:35.669Z,2.72
2023-01-11T07:11:39.622Z,3.00
2023-01-11T07:16:41.283Z,2.60
2023-01-11T07:21:42.672Z,2.53
2023-01-11T07:26:44.137Z,2.47
2023-01-11T07:31:46.396Z,2.42
2023-01-11T07:36:48.814Z,2.67
2023-01-11T07:42:08.596Z,3.03
2023-01-11T07:47:10.045Z,3.17
2023-01-11T07:52:11.555Z,2.90
2023-01-11T07:57:12.995Z,3.25
2023-01-11T08:02:14.382Z,3.15
2023-01-11T08:07:15.825Z,3.13
2023-01-11T08:12:35.731Z,2.63
2023-01-11T08:17:37.232Z,3.22
2023-01-11T08:22:38.625Z,2.97
2023-01-11T08:27:40.772Z,3.25
2023-01-11T08:32:42.355Z,3.00
2023-01-11T08:37:43.708Z,2.72
2023-01-11T08:42:45.163Z,2.70
2023-01-11T08:47:47.028Z,3.45
2023-01-11T08:52:50.675Z,3.15
2023-01-11T08:57:52.134Z,2.92
2023-01-11T09:02:53.615Z,3.08
2023-01-11T09:07:55.858Z,2.75
2023-01-11T09:12:57.416Z,2.78
2023-01-11T09:17:58.885Z,3.40
2023-01-11T09:23:00.301Z,3.50
2023-01-11T09:28:01.806Z,2.72
2023-01-11T09:33:04.982Z,3.00
2023-01-11T09:38:06.414Z,2.92
2023-01-11T09:43:11.459Z,2.67
2023-01-11T09:48:28.559Z,2.85
2023-01-11T09:53:34.787Z,3.42
2023-01-11T09:58:55.130Z,3.30
2023-01-11T10:03:59.860Z,2.95
2023-01-11T10:18:28.620Z,3.47
2023-01-11T10:20:27.603Z,3.80
2023-01-11T10:25:37.645Z,3.88
2023-01-11T10:30:51.296Z,3.35
2023-01-11T10:36:34.656Z,3.45
2023-01-11T10:41:43.061Z,3.05
2023-01-11T10:46:47.272Z,2.97
2023-01-11T10:51:49.277Z,2.95
2023-01-11T10:57:02.745Z,2.95
2023-01-11T11:02:26.131Z,2.97
2023-01-11T11:07:46.506Z,3.63
2023-01-11T11:12:53.797Z,3.70
2023-01-11T11:17:55.369Z,4.22
2023-01-11T11:22:57.575Z,3.17
2023-01-11T11:28:05.050Z,3.35
2023-01-11T11:33:25.357Z,4.30
2023-01-11T11:38:31.631Z,3.83
2023-01-11T11:43:35.572Z,3.00
2023-01-11T11:48:37.051Z,3.85
2023-01-11T11:53:48.205Z,4.03
2023-01-11T11:58:50.155Z,4.03
2023-01-11T12:03:54.709Z,3.80
2023-01-11T12:08:57.847Z,3.83
2023-01-11T12:14:04.180Z,4.93
2023-01-11T12:19:28.870Z,3.60
2023-01-11T12:24:30.916Z,4.22
2023-01-11T12:29:38.157Z,4.10
2023-01-11T12:34:54.568Z,3.17
2023-01-11T12:40:04.846Z,3.75
2023-01-11T12:45:27.370Z,2.95
2023-01-11T12:50:46.627Z,3.45
2023-01-11T12:55:48.128Z,3.53
2023-01-11T13:01:08.186Z,4.20
2023-01-11T13:11:37.231Z,3.92
2023-01-11T13:16:44.568Z,3.22
2023-01-11T13:21:53.284Z,3.90
2023-01-11T13:26:58.154Z,3.75
2023-01-11T13:32:02.485Z,3.53
2023-01-11T13:37:11.223Z,3.40
2023-01-11T13:42:18.222Z,4.32
2023-01-11T13:47:23.048Z,3.75
2023-01-11T13:52:42.942Z,3.22
2023-01-11T13:58:02.787Z,3.55
2023-01-11T14:03:20.832Z,3.83
2023-01-11T14:08:32.043Z,4.80
2023-01-11T14:13:55.124Z,3.50
2023-01-11T14:19:04.432Z,3.13
2023-01-11T14:24:06.402Z,3.15
2023-01-11T14:29:17.572Z,4.53
2023-01-11T14:34:18.981Z,5.22
2023-01-11T14:39:26.596Z,3.75
2023-01-11T14:44:43.339Z,4.05
2023-01-11T14:49:50.898Z,3.15
2023-01-11T14:54:54.002Z,3.22
2023-01-11T14:59:55.486Z,4.50
2023-01-11T15:04:56.974Z,3.13
2023-01-11T15:09:59.128Z,3.72
2023-01-11T15:15:03.413Z,3.20
2023-01-11T15:20:12.579Z,3.35
2023-01-11T15:25:24.023Z,3.20
2023-01-11T15:30:28.791Z,3.58
2023-01-11T15:35:32.424Z,3.58
2023-01-11T15:40:36.685Z,3.67
2023-01-11T15:45:38.047Z,4.15
2023-01-11T15:50:45.450Z,3.38
2023-01-11T15:56:05.436Z,3.53
2023-01-11T16:01:26.497Z,3.67
2023-01-11T16:06:40.035Z,2.97
2023-01-11T16:11:56.721Z,3.35
2023-01-11T16:16:58.364Z,3.72
2023-01-11T16:22:02.494Z,3.83
2023-01-11T16:27:04.215Z,3.75
2023-01-11T16:32:07.284Z,3.65
2023-01-11T16:37:27.104Z,3.65
2023-01-11T16:42:30.765Z,3.47
2023-01-11T16:47:32.246Z,4.10
2023-01-11T16:52:37.714Z,3.20
2023-01-11T16:57:41.255Z,4.10
2023-01-11T17:02:47.479Z,3.80
2023-01-11T17:07:48.945Z,4.60
2023-01-11T17:13:29.169Z,4.20
2023-01-11T17:18:30.583Z,4.10
2023-01-11T17:23:33.032Z,3.60
2023-01-11T17:28:35.382Z,3.95
2023-01-11T17:33:37.636Z,3.65
2023-01-11T17:38:41.464Z,3.83
2023-01-11T17:44:01.944Z,4.88
2023-01-11T17:49:03.461Z,3.60
2023-01-11T17:54:04.981Z,4.00
2023-01-11T17:59:18.522Z,3.08
2023-01-11T18:04:21.303Z,3.53
2023-01-11T18:09:32.707Z,3.80
2023-01-11T18:14:39.433Z,3.40
2023-01-11T18:19:42.825Z,3.92
2023-01-11T18:24:52.493Z,5.88
2023-01-11T18:29:54.944Z,3.83
2023-01-11T18:34:58.285Z,4.00
2023-01-11T18:40:01.333Z,3.25
2023-01-11T18:45:02.809Z,5.03
2023-01-11T18:50:04.526Z,3.72
2023-01-11T18:55:06.350Z,3.20
2023-01-11T19:00:08.126Z,3.85
2023-01-11T19:05:10.496Z,3.05
2023-01-11T19:10:15.903Z,3.85
2023-01-11T19:15:17.518Z,3.95
2023-01-11T19:20:19.013Z,3.35
2023-01-11T19:25:20.691Z,3.72
2023-01-11T19:30:22.107Z,3.80
2023-01-11T19:35:25.004Z,3.60
2023-01-11T19:40:26.526Z,3.92
2023-01-11T19:45:28.002Z,3.80
2023-01-11T19:50:29.489Z,4.07
2023-01-11T19:55:30.896Z,4.53
2023-01-11T20:00:32.849Z,3.97
2023-01-11T20:05:34.380Z,3.00
2023-01-11T20:10:35.761Z,3.90
2023-01-11T20:15:38.166Z,3.53
2023-01-11T20:20:39.671Z,3.67
2023-01-11T20:25:41.437Z,3.78
2023-01-11T20:30:42.917Z,3.40
2023-01-11T20:35:44.747Z,4.38
2023-01-11T20:40:46.227Z,4.80
2023-01-11T20:46:07.924Z,3.88
2023-01-11T20:51:09.325Z,4.30
2023-01-11T20:56:10.735Z,4.50
2023-01-11T21:01:12.785Z,4.97
2023-01-11T21:06:15.622Z,4.50
2023-01-11T21:11:17.129Z,4.53
2023-01-11T21:16:18.713Z,3.58
2023-01-11T21:21:20.295Z,4.53
2023-01-11T21:26:21.874Z,4.22
2023-01-11T21:31:23.384Z,4.32
2023-01-11T21:36:26.137Z,3.80
2023-01-11T21:41:47.089Z,3.88
2023-01-11T21:46:48.708Z,4.22
2023-01-11T21:51:50.552Z,4.35
2023-01-11T21:57:10.955Z,4.20
2023-01-11T22:02:12.347Z,3.97
2023-01-11T22:12:28.984Z,3.38
2023-01-11T22:17:30.470Z,3.40
2023-01-11T22:22:31.883Z,4.05
2023-01-11T22:27:33.277Z,3.22
2023-01-11T22:32:34.663Z,4.72
2023-01-11T22:37:36.047Z,4.15
2023-01-11T22:42:37.450Z,4.82
2023-01-11T22:47:38.884Z,3.80
2023-01-11T22:52:40.855Z,3.58
2023-01-11T22:57:42.185Z,4.13
2023-01-11T23:02:43.554Z,4.72
2023-01-11T23:07:45.001Z,4.82
2023-01-11T23:13:04.820Z,3.50
2023-01-11T23:18:07.705Z,4.43
2023-01-11T23:23:09.114Z,3.80
2023-01-11T23:28:10.796Z,3.10
2023-01-11T23:33:12.190Z,3.17
2023-01-11T23:38:13.609Z,3.67
2023-01-11T23:43:15.028Z,4.28
2023-01-11T23:48:16.402Z,3.92
2023-01-11T23:53:17.816Z,4.25
2023-01-11T23:58:19.607Z,3.60
